nws-alerts: Checking more than four warning/county codes can delay the loading of your pages. You should use a cron job to get the data.

Nearby METAR Reports

 

KFCI - Richmond/Chester, Virginia, USA
Distance from station: ESE 7mi, 11km
Updated: Sun, 05-Feb-2023 7:56am EST
Clear
Clear
 Wind from S
Wind: S 6 mph , 9 km/h
Temperature: 32°F , 0°C
Wind Chill: 26°F , -3°C
Dew Point: 18°F , -8°C
Humidity: 55%
Barometer: 30.35 inHg , 1027.8 hPa
Clouds: Clear
Visibility: 10 miles , 16 km
2023/02/05 12:56 KFCI 051256Z AUTO 18005KT 10SM CLR 00/M08 A3035 RMK AO2 SLP291 T00001083 FZRANO
KRIC - Richmond, Virginia, USA
Distance from station: ENE 19mi, 30km
Updated: Sun, 05-Feb-2023 7:54am EST
Mostly cloudy
Mostly cloudy
 Wind from S
Wind: S 7 mph , 11 km/h
Temperature: 30°F , -1°C
Wind Chill: 23°F , -5°C
Dew Point: 16°F , -9°C
Humidity: 55%
Barometer: 30.34 inHg , 1027.4 hPa
Clouds: Mostly cloudy
Visibility: 10 miles , 16 km
Cloud details: Few Clouds 18000 ft
Mostly cloudy 30000 ft
2023/02/05 12:54 KRIC 051254Z 19006KT 10SM FEW180 BKN300 M01/M09 A3034 RMK AO2 SLP282 T10111089
 
KPTB - Petersburg, Virginia, USA
Distance from station: SSE 19mi, 31km
Updated: Sun, 05-Feb-2023 8:15am EST
Clear
Clear
 Wind from calm
Wind: Calm
Temperature: 30°F , -1°C
Dew Point: 14°F , -10°C
Humidity: 51%
Barometer: 30.37 inHg , 1028.4 hPa
Clouds: Clear
Visibility: 10 miles , 16 km
2023/02/05 13:15 KPTB 051315Z AUTO 00000KT 10SM CLR M01/M10 A3037 RMK AO2 T10131097
KOFP - Richmond/Hanover, Virginia, USA
Distance from station: NNE 22mi, 36km
Updated: Sun, 05-Feb-2023 7:54am EST
Clear
Clear
 Wind from S
Wind: S 7 mph , 11 km/h
Temperature: 32°F , 0°C
Wind Chill: 25°F , -4°C
Dew Point: 18°F , -8°C
Humidity: 55%
Barometer: 30.34 inHg , 1027.4 hPa
Clouds: Clear
Visibility: 10 miles , 16 km
2023/02/05 12:54 KOFP 051254Z AUTO 18006KT 10SM CLR 00/M08 A3034 RMK AO2 SLP274 T00001078
 
KW96 - Quinton, Virginia, USA
Distance from station: E 28mi, 46km
Updated: Sun, 05-Feb-2023 7:55am EST
Clear
Clear
 Wind from S
Wind: S 3 mph , 6 km/h
Temperature: 32°F , 0°C
Dew Point: 16°F , -9°C
Humidity: 51%
Barometer: 30.35 inHg , 1027.8 hPa
Clouds: Clear
Visibility: 10 miles , 16 km
2023/02/05 12:55 KW96 051255Z AUTO 17003KT 10SM CLR 00/M09 A3035 RMK AO1 T00001095
KBKT - Blackstone Army, Virginia, USA
Distance from station: SW 30mi, 48km
Updated: Sun, 05-Feb-2023 7:55am EST
Clear
Clear
 Wind from SSW
Wind: SSW 9 mph , 15 km/h
Temperature: 32°F , 0°C
Wind Chill: 24°F , -4°C
Dew Point: 18°F , -8°C
Humidity: 55%
Barometer: 30.35 inHg , 1027.8 hPa
Clouds: Clear
Visibility: 10 miles , 16 km
2023/02/05 12:55 KBKT 051255Z AUTO 20008KT 10SM CLR 00/M08 A3035 RMK AO1 T10011082
 
KW81 - Crewe, Virginia, USA
Distance from station: SW 30mi, 49km
Updated: Sun, 05-Feb-2023 7:55am EST
Clear
Clear
 Wind from S
Wind: S 5 mph , 7 km/h
Temperature: 32°F , 0°C
Wind Chill: 27°F , -3°C
Dew Point: 12°F , -11°C
Humidity: 44%
Barometer: 30.34 inHg , 1027.4 hPa
Clouds: Clear
Visibility: 10 miles , 16 km
2023/02/05 12:55 KW81 051255Z AUTO 19004KT 10SM CLR 00/M11 A3034 RMK AO1 T00001115
K7W4 - Bumpass, Virginia, USA
Distance from station: N 38mi, 61km
Updated: Sun, 05-Feb-2023 7:55am EST
Clear
Clear
 Wind from SSW
Wind: SSW 6 mph , 9 km/h
Temperature: 32°F , 0°C
Wind Chill: 26°F , -3°C
Dew Point: 18°F , -8°C
Humidity: 55%
Barometer: 30.30 inHg , 1026.1 hPa
Clouds: Clear
Visibility: 10 miles , 16 km
2023/02/05 12:55 K7W4 051255Z AUTO 21005KT 10SM CLR 00/M08 A3030 RMK AO1 T00031085
 
KFVX - Farmville, Virginia, USA
Distance from station: W 43mi, 69km
Updated: Sun, 05-Feb-2023 7:55am EST
Clear
Clear
 Wind from SSW
Wind: SSW 5 mph , 7 km/h
Temperature: 32°F , 0°C
Wind Chill: 27°F , -3°C
Dew Point: 18°F , -8°C
Humidity: 55%
Barometer: 30.31 inHg , 1026.4 hPa
Clouds: Clear
Visibility: 10 miles , 16 km
2023/02/05 12:55 KFVX 051255Z AUTO 20004KT 10SM CLR 00/M08 A3031 RMK AO2 T10051082
KW31 - Kenbridge, Virginia, USA
Distance from station: SW 43mi, 70km
Updated: Sun, 05-Feb-2023 7:55am EST
Clear
Clear
 
Temperature: 30°F , -1°C
Dew Point: 18°F , -8°C
Humidity: 59%
Barometer: 30.35 inHg , 1027.8 hPa
Clouds: Clear
Visibility: 10 miles , 16 km
2023/02/05 12:55 KW31 051255Z AUTO 10SM CLR M01/M08 A3035 RMK AO1 T10111084
 
KLKU - Louisa, Virginia, USA
Distance from station: NNW 44mi, 72km
Updated: Sun, 05-Feb-2023 7:55am EST
Clear
Clear
 Wind from SSW
Wind: SSW 6 mph , 9 km/h
Temperature: 32°F , 0°C
Wind Chill: 26°F , -3°C
Dew Point: 16°F , -9°C
Humidity: 51%
Barometer: 30.29 inHg , 1025.7 hPa
Clouds: Clear
Visibility: 10 miles , 16 km
2023/02/05 12:55 KLKU 051255Z AUTO 20005KT 10SM CLR 00/M09 A3029 RMK AO2 T00021090
KLVL - Lawrenceville, Virginia, USA
Distance from station: S 46mi, 75km
Updated: Sun, 05-Feb-2023 7:55am EST
Clear
Clear
 Wind from S
Wind: S 5 mph , 7 km/h
Temperature: 34°F , 1°C
Wind Chill: 29°F , -2°C
Dew Point: 18°F , -8°C
Humidity: 51%
Barometer: 30.38 inHg , 1028.8 hPa
Clouds: Clear
Visibility: 10 miles , 16 km
2023/02/05 12:55 KLVL 051255Z AUTO 19004KT 10SM CLR 01/M08 A3038 RMK AO1 T00051078
 
KAKQ - Norfolk/Wakefld, Virginia, USA
Distance from station: SE 47mi, 75km
Updated: Sun, 05-Feb-2023 7:54am EST
Clear
Clear
 Wind from SW
Wind: SW 3 mph , 6 km/h
Temperature: 32°F , 0°C
Dew Point: 18°F , -8°C
Humidity: 55%
Barometer: 30.39 inHg , 1029.1 hPa
Clouds: Clear
Visibility: 10 miles , 16 km
2023/02/05 12:54 KAKQ 051254Z AUTO 23003KT 10SM CLR 00/M08 A3039 RMK AO2 SLP294 T00001083
KFYJ - West Point, Virginia, USA
Distance from station: E 48mi, 78km
Updated: Sun, 05-Feb-2023 7:55am EST
Clear
Clear
 Wind from calm
Wind: Calm
Temperature: 34°F , 1°C
Dew Point: 16°F , -9°C
Humidity: 48%
Barometer: 30.38 inHg , 1028.8 hPa
Clouds: Clear
Visibility: 10 miles , 16 km
2023/02/05 12:55 KFYJ 051255Z AUTO 00000KT 10SM CLR 01/M09 A3038 RMK AO1 T00081088